Vandenberg Range, California
Current Conditions -  °F | °C
As of 4:55 PM on Tuesday 21 Oct 2014 (Local Time) from KVBG Reporting Station
Few Clouds Few Clouds  
Wind Chill: 68°   Ceiling: Unl
Heat Index: 68°   Visibility: 10mi
Dew Point: 54°   Wind: 24mph
Humidity: 61%   Direction: 330°NNW
Pressure: 29.92"   Gusts: NA
Location:  34.75°N, 120.56°W
Report Text: KVBG 212355Z 33021KT 10SM FEW200 20/12 A2992 RMK AO2 PK WND 32030/2320 SLP120 T02000122 10250 20200 58008 $
Loading
Personal Weather Stations






























Interactive Weather Map
Tropical Storm Tracking
New forecast layout! Learn more

10-Day Weather Forecast

Advertisements
Track Severe Weather on mobile